Time;durP1;ratioP1;P1;durP2;ratioP2;P2;SDS_P1;SDS_P2;PMS_P1;PMS_P2;Temp;Humidity;BMP_temperature;BMP_pressure;BME280_temperature;BME280_humidity;BME280_pressure;Samples;Min_cycle;Max_cycle;Signal;HPM_P1;HPM_P2
2023/11/30 00:01:56;;;;;;;3.17;2.50;;;;;;;0.31;70.95;98493.25;5052254;28;20417;-62
2023/11/30 00:04:21;;;;;;;4.20;2.70;;;;;;;0.31;70.79;98477.44;5051640;28;20040;-62
2023/11/30 00:06:47;;;;;;;3.65;2.20;;;;;;;0.46;70.72;98520.44;5048209;28;20153;-62
2023/11/30 00:09:13;;;;;;;5.43;3.03;;;;;;;0.15;71.41;98453.81;5032901;28;20052;-62
2023/11/30 00:11:38;;;;;;;4.45;2.40;;;;;;;0.33;71.04;98472.94;5033536;28;20036;-59
2023/11/30 00:14:04;;;;;;;5.10;3.10;;;;;;;0.23;70.82;98458.59;5033275;28;20076;-62
2023/11/30 00:16:30;;;;;;;4.38;2.45;;;;;;;0.36;71.14;98467.47;5034056;28;20026;-61
2023/11/30 00:18:56;;;;;;;5.07;3.25;;;;;;;0.21;71.31;98449.97;5034444;28;20418;-62
2023/11/30 00:21:22;;;;;;;5.40;2.90;;;;;;;0.36;70.68;98487.69;5033073;28;20081;-60
2023/11/30 00:23:48;;;;;;;7.25;4.15;;;;;;;0.34;70.53;98457.97;5039012;28;20072;-64
2023/11/30 00:26:15;;;;;;;5.75;3.50;;;;;;;0.06;71.39;98422.78;5055423;28;20460;-62
2023/11/30 00:28:41;;;;;;;5.90;3.72;;;;;;;0.16;71.16;98442.38;5038860;28;20112;-62
2023/11/30 00:31:07;;;;;;;4.57;3.35;;;;;;;0.03;71.28;98409.81;5035122;28;20325;-64
2023/11/30 00:33:33;;;;;;;6.28;3.38;;;;;;;0.38;70.91;98448.97;5035154;28;20049;-62
2023/11/30 00:35:59;;;;;;;5.60;3.13;;;;;;;0.38;70.47;98436.63;5038853;28;20029;-63
2023/11/30 00:38:25;;;;;;;3.17;2.50;;;;;;;0.43;71.00;98425.81;5054893;28;20037;-63
2023/11/30 00:40:50;;;;;;;4.30;3.15;;;;;;;0.38;70.26;98428.72;5054884;28;20390;-63
2023/11/30 00:43:19;;;;;;;6.18;3.45;;;;;;;0.37;70.91;98471.78;5054844;28;20060;-61
2023/11/30 00:45:45;;;;;;;4.50;3.22;;;;;;;0.37;70.47;98437.56;5054837;28;20493;-62
2023/11/30 00:48:10;;;;;;;3.53;2.63;;;;;;;0.38;70.06;98418.19;5052881;28;20128;-62
2023/11/30 00:50:36;;;;;;;4.35;2.45;;;;;;;0.48;70.16;98434.28;5054442;28;20467;-62
2023/11/30 00:53:02;;;;;;;4.88;2.70;;;;;;;0.35;70.72;98430.69;5053182;28;20459;-62
2023/11/30 00:55:27;;;;;;;6.38;2.35;;;;;;;0.43;70.21;98400.31;5054453;28;20032;-63
2023/11/30 00:57:53;;;;;;;4.80;2.70;;;;;;;0.36;70.74;98432.38;5052478;28;20064;-62
2023/11/30 01:00:19;;;;;;;4.57;2.60;;;;;;;0.46;70.16;98416.88;5054473;28;20044;-62
2023/11/30 01:02:44;;;;;;;4.63;3.33;;;;;;;0.31;70.69;98401.09;5054322;28;20040;-63
2023/11/30 01:05:10;;;;;;;4.28;3.13;;;;;;;0.26;71.40;98414.53;5054280;28;20041;-62
2023/11/30 01:07:36;;;;;;;5.15;2.72;;;;;;;0.53;70.65;98420.84;5046698;28;20030;-61
2023/11/30 01:10:02;;;;;;;4.60;2.95;;;;;;;0.54;70.48;98412.00;5034483;28;20370;-62
2023/11/30 01:12:29;;;;;;;4.40;2.83;;;;;;;0.55;69.63;98408.41;5035189;28;20403;-62
2023/11/30 01:14:56;;;;;;;5.18;2.45;;;;;;;0.64;69.91;98413.09;5034244;28;20083;-64
2023/11/30 01:17:22;;;;;;;4.97;3.50;;;;;;;0.49;69.96;98395.63;5038057;28;20293;-63
2023/11/30 01:19:48;;;;;;;5.90;3.17;;;;;;;0.60;69.88;98411.59;5052192;28;20166;-60
2023/11/30 01:22:14;;;;;;;4.65;3.28;;;;;;;0.50;69.93;98408.69;5053815;28;20056;-62
2023/11/30 01:24:40;;;;;;;3.38;2.22;;;;;;;0.53;70.02;98394.50;5053597;28;20118;-62
2023/11/30 01:27:06;;;;;;;3.65;2.17;;;;;;;0.64;69.63;98399.09;5051785;28;20045;-62
2023/11/30 01:29:32;;;;;;;5.60;3.33;;;;;;;0.55;69.36;98387.34;5053802;28;20071;-63
2023/11/30 01:31:58;;;;;;;5.93;3.50;;;;;;;0.39;70.48;98392.72;5053721;28;20033;-63
2023/11/30 01:34:23;;;;;;;4.65;3.20;;;;;;;0.55;69.69;98387.34;5053542;28;20021;-62
2023/11/30 01:36:49;;;;;;;5.28;3.30;;;;;;;0.51;70.30;98383.22;5052009;28;20029;-62
2023/11/30 01:39:15;;;;;;;4.93;3.10;;;;;;;0.37;70.38;98378.81;5035017;28;20376;-62
2023/11/30 01:41:44;;;;;;;6.45;3.40;;;;;;;0.36;70.40;98380.59;5033658;28;20355;-63
2023/11/30 01:44:09;;;;;;;5.32;3.33;;;;;;;0.51;70.16;98375.31;5033628;28;20069;-62
2023/11/30 01:46:38;;;;;;;6.47;3.70;;;;;;;0.39;71.02;98398.81;5041761;28;20067;-62
2023/11/30 01:49:06;;;;;;;4.65;2.70;;;;;;;0.49;70.20;98377.22;5053820;28;20094;-62
2023/11/30 01:51:35;;;;;;;5.70;3.40;;;;;;;0.43;70.27;98370.53;5053613;28;20064;-61
2023/11/30 01:54:02;;;;;;;6.07;3.67;;;;;;;0.29;71.23;98371.38;5045100;28;20083;-62
2023/11/30 01:56:29;;;;;;;5.25;3.45;;;;;;;0.38;70.73;98362.06;5034495;28;20044;-62
2023/11/30 01:58:55;;;;;;;5.43;2.58;;;;;;;0.47;70.64;98401.00;5042727;28;20147;-63
2023/11/30 02:01:25;;;;;;;4.38;2.58;;;;;;;0.59;70.01;98378.31;5034435;28;20037;-63
2023/11/30 02:03:51;;;;;;;2.33;1.70;;;;;;;0.48;70.30;98402.69;5033293;28;20040;-63
2023/11/30 02:06:18;;;;;;;5.35;3.38;;;;;;;0.19;70.05;98341.28;5033194;28;20037;-62
2023/11/30 02:08:47;;;;;;;5.40;2.92;;;;;;;0.40;70.23;98368.09;5033959;28;20459;-62
2023/11/30 02:11:13;;;;;;;5.05;3.17;;;;;;;0.29;70.95;98371.38;5033347;28;20133;-62
2023/11/30 02:13:39;;;;;;;6.13;3.65;;;;;;;0.28;70.93;98370.53;5032795;28;20051;-62
2023/11/30 02:16:06;;;;;;;4.43;3.10;;;;;;;0.21;71.78;98379.75;5033136;28;20117;-63
2023/11/30 02:18:32;;;;;;;5.38;3.25;;;;;;;0.51;70.70;98370.88;5033164;28;20065;-62
2023/11/30 02:20:58;;;;;;;5.20;3.35;;;;;;;0.52;70.00;98361.22;5033216;28;20087;-63
2023/11/30 02:23:24;;;;;;;4.18;3.00;;;;;;;0.42;70.77;98371.47;5032694;28;20387;-63
2023/11/30 02:25:50;;;;;;;4.82;3.10;;;;;;;0.31;71.41;98374.78;5032787;28;20424;-63
2023/11/30 02:28:19;;;;;;;4.25;2.80;;;;;;;0.46;70.79;98366.84;5034011;28;20033;-61
2023/11/30 02:30:46;;;;;;;5.57;3.55;;;;;;;0.36;71.28;98356.91;5032720;28;20402;-61
2023/11/30 02:33:14;;;;;;;5.13;3.45;;;;;;;0.37;70.90;98358.59;5032693;28;20034;-62
2023/11/30 02:35:40;;;;;;;5.03;3.30;;;;;;;0.39;71.00;98355.88;5032814;28;20029;-61
2023/11/30 02:38:05;;;;;;;4.93;3.05;;;;;;;0.40;70.99;98358.38;5033998;28;20071;-63
2023/11/30 02:40:31;;;;;;;7.32;3.03;;;;;;;0.26;71.55;98351.34;5032965;28;20049;-61
2023/11/30 02:42:56;;;;;;;5.55;3.42;;;;;;;0.39;71.64;98353.22;5033460;28;20026;-62
2023/11/30 02:45:22;;;;;;;4.53;2.45;;;;;;;0.54;70.47;98348.78;5032532;28;20041;-64
2023/11/30 02:47:47;;;;;;;4.28;2.80;;;;;;;0.40;70.86;98353.13;5033565;28;20029;-63
2023/11/30 02:50:13;;;;;;;5.97;3.30;;;;;;;0.33;71.11;98354.44;5032848;28;20061;-62
2023/11/30 02:52:39;;;;;;;4.65;3.08;;;;;;;0.32;71.03;98350.13;5032804;28;20036;-62
2023/11/30 02:55:05;;;;;;;4.22;2.90;;;;;;;0.31;71.11;98364.25;5032388;28;20043;-62
2023/11/30 02:57:31;;;;;;;3.45;2.60;;;;;;;0.48;71.06;98367.59;5032637;28;20134;-63
2023/11/30 02:59:56;;;;;;;6.40;3.50;;;;;;;0.37;71.60;98342.78;5050028;28;20033;-62
2023/11/30 03:02:22;;;;;;;6.38;3.25;;;;;;;0.42;71.55;98363.56;5052209;28;20033;-64
2023/11/30 03:04:47;;;;;;;4.88;3.15;;;;;;;0.40;71.68;98353.13;5038941;28;20476;-63
2023/11/30 03:07:13;;;;;;;4.15;3.30;;;;;;;0.44;71.18;98353.78;5032600;28;20104;-62
2023/11/30 03:09:39;;;;;;;7.45;3.10;;;;;;;0.49;71.07;98351.69;5045894;28;20112;-63
2023/11/30 03:12:05;;;;;;;4.00;3.00;;;;;;;0.30;70.62;98312.53;5052328;28;20029;-62
2023/11/30 03:14:30;;;;;;;5.18;2.55;;;;;;;0.59;70.51;98364.28;5052011;28;20029;-63
2023/11/30 03:16:57;;;;;;;4.47;2.65;;;;;;;0.56;70.36;98345.09;5052168;28;20029;-63
2023/11/30 03:19:22;;;;;;;6.65;3.10;;;;;;;0.54;70.19;98349.63;5050500;28;20450;-63
2023/11/30 03:21:52;;;;;;;5.38;3.10;;;;;;;0.63;70.31;98348.19;5052155;28;20037;-63
2023/11/30 03:24:19;;;;;;;5.88;3.03;;;;;;;0.41;70.21;98301.31;5051702;28;20405;-62
2023/11/30 03:26:45;;;;;;;4.55;3.08;;;;;;;0.50;70.78;98344.66;5051864;28;20053;-62
2023/11/30 03:29:10;;;;;;;6.00;3.08;;;;;;;0.61;70.34;98355.34;5050374;28;20098;-63
2023/11/30 03:31:36;;;;;;;3.45;2.05;;;;;;;0.74;69.30;98344.88;5050342;28;20045;-62
2023/11/30 03:34:02;;;;;;;12.07;3.30;;;;;;;0.68;69.69;98356.63;5051947;28;20021;-62
2023/11/30 03:36:28;;;;;;;5.45;3.28;;;;;;;0.71;69.61;98345.06;5051935;28;20025;-62
2023/11/30 03:38:55;;;;;;;3.70;2.85;;;;;;;0.69;70.27;98336.44;5050006;28;20037;-62
2023/11/30 03:41:23;;;;;;;5.53;3.10;;;;;;;0.57;70.08;98340.69;5052116;28;20071;-63
2023/11/30 03:43:49;;;;;;;9.70;3.80;;;;;;;0.68;69.75;98337.38;5054492;28;20120;-62
2023/11/30 03:46:15;;;;;;;5.28;2.88;;;;;;;0.73;69.68;98364.25;5055724;28;20112;-64
2023/11/30 03:48:41;;;;;;;9.77;3.28;;;;;;;0.65;70.13;98348.94;5054214;28;20025;-63
2023/11/30 03:51:07;;;;;;;6.80;2.70;;;;;;;0.67;70.50;98354.94;5025073;28;20037;-63
2023/11/30 03:53:32;;;;;;;5.35;3.28;;;;;;;0.73;70.23;98350.25;5035030;28;20848;-63
2023/11/30 03:56:02;;;;;;;6.65;3.67;;;;;;;0.72;70.48;98341.50;5034819;28;20033;-62
2023/11/30 03:58:28;;;;;;;4.45;2.55;;;;;;;0.71;70.58;98350.34;5037874;28;20033;-62
2023/11/30 04:00:53;;;;;;;6.60;3.55;;;;;;;0.67;71.22;98344.41;5054076;28;20035;-63
2023/11/30 04:03:19;;;;;;;7.97;3.60;;;;;;;0.69;70.63;98332.00;5054778;28;20033;-62
2023/11/30 04:05:44;;;;;;;4.95;3.17;;;;;;;0.37;71.18;98292.75;5050299;28;20060;-58
2023/11/30 04:08:10;;;;;;;4.30;3.28;;;;;;;0.64;71.47;98339.34;5036104;28;20034;-63
2023/11/30 04:10:35;;;;;;;6.68;3.85;;;;;;;0.69;71.15;98339.88;5054457;28;20037;-64
2023/11/30 04:13:01;;;;;;;4.18;2.70;;;;;;;0.75;71.33;98314.13;5054499;28;20032;-64
2023/11/30 04:15:27;;;;;;;5.68;3.90;;;;;;;0.54;72.08;98328.53;5054168;28;20367;-62
2023/11/30 04:17:53;;;;;;;6.35;3.90;;;;;;;0.66;72.06;98340.09;5052661;28;20021;-62
2023/11/30 04:20:19;;;;;;;5.68;2.78;;;;;;;0.66;72.14;98332.19;5053206;28;20037;-63
2023/11/30 04:22:44;;;;;;;5.88;3.55;;;;;;;0.56;72.69;98336.38;5054481;28;20339;-59
2023/11/30 04:25:10;;;;;;;6.88;3.17;;;;;;;0.77;71.77;98333.31;5054849;28;20419;-64
2023/11/30 04:27:36;;;;;;;8.15;3.80;;;;;;;0.78;72.04;98340.25;5053252;28;20046;-63
2023/11/30 04:30:03;;;;;;;5.50;3.15;;;;;;;0.75;71.69;98329.94;5053831;28;20037;-62
2023/11/30 04:32:32;;;;;;;7.43;3.55;;;;;;;0.64;72.94;98333.25;5055087;28;20025;-63
2023/11/30 04:34:59;;;;;;;7.57;4.07;;;;;;;0.67;72.84;98341.78;5054692;28;20025;-64
2023/11/30 04:37:24;;;;;;;5.05;2.53;;;;;;;0.84;72.12;98329.31;5053464;28;20116;-63
2023/11/30 04:39:50;;;;;;;6.80;3.30;;;;;;;0.71;72.46;98334.53;5053230;28;20386;-63
2023/11/30 04:42:16;;;;;;;3.60;2.13;;;;;;;0.84;72.43;98313.50;5054870;28;20463;-54
2023/11/30 04:44:41;;;;;;;5.28;3.63;;;;;;;0.65;73.07;98319.97;5054870;28;20040;-62
2023/11/30 04:47:07;;;;;;;5.75;3.92;;;;;;;0.80;73.08;98325.19;5054611;28;20025;-64
2023/11/30 04:49:33;;;;;;;6.45;3.78;;;;;;;0.85;72.79;98321.34;5052624;28;20501;-64
2023/11/30 04:51:59;;;;;;;6.97;4.50;;;;;;;0.96;72.33;98333.78;5054441;28;20453;-64
2023/11/30 04:54:24;;;;;;;8.52;4.10;;;;;;;0.95;72.27;98316.28;5052199;28;20450;-63
2023/11/30 04:56:50;;;;;;;8.98;4.88;;;;;;;0.79;72.99;98324.34;5054391;28;20028;-62
2023/11/30 04:59:15;;;;;;;7.97;4.90;;;;;;;0.71;73.29;98310.81;5042086;28;20025;-63
2023/11/30 05:01:41;;;;;;;11.93;4.60;;;;;;;0.94;72.89;98329.56;5033356;28;20064;-62
2023/11/30 05:04:07;;;;;;;8.65;4.30;;;;;;;0.95;72.72;98331.25;5045587;28;20507;-63
2023/11/30 05:06:32;;;;;;;9.55;5.00;;;;;;;1.01;72.71;98315.03;5054254;28;20044;-64
2023/11/30 05:08:58;;;;;;;5.53;3.80;;;;;;;1.02;72.60;98324.63;5052322;28;20440;-66
2023/11/30 05:11:24;;;;;;;10.20;5.78;;;;;;;0.91;72.96;98311.34;5046537;28;20044;-65
2023/11/30 05:13:50;;;;;;;8.82;4.68;;;;;;;0.96;73.03;98320.59;5034126;28;20494;-63
2023/11/30 05:16:15;;;;;;;6.45;5.13;;;;;;;0.93;73.33;98328.72;5034041;28;20022;-63
2023/11/30 05:18:41;;;;;;;6.50;4.35;;;;;;;1.07;73.03;98319.91;5034702;28;20368;-62
2023/11/30 05:21:07;;;;;;;9.25;5.82;;;;;;;0.71;73.57;98280.03;5032605;28;20479;-64
2023/11/30 05:23:33;;;;;;;8.48;4.97;;;;;;;1.10;73.17;98330.28;5033729;28;20518;-64
2023/11/30 05:25:58;;;;;;;9.38;6.57;;;;;;;1.04;73.08;98320.09;5033793;28;20057;-64
2023/11/30 05:28:24;;;;;;;12.15;6.22;;;;;;;1.04;73.54;98316.63;5034705;28;20038;-62
2023/11/30 05:30:50;;;;;;;9.07;6.40;;;;;;;1.01;73.72;98320.31;5032717;28;20059;-63
2023/11/30 05:33:16;;;;;;;9.20;6.15;;;;;;;0.93;73.89;98304.16;5032770;28;20399;-63
2023/11/30 05:35:41;;;;;;;10.48;6.53;;;;;;;1.01;74.22;98320.31;5033463;28;20092;-64
2023/11/30 05:38:07;;;;;;;11.50;6.57;;;;;;;1.08;73.47;98326.88;5034873;28;20037;-64
2023/11/30 05:40:33;;;;;;;12.20;6.78;;;;;;;1.20;73.80;98327.84;5033753;28;20052;-62
2023/11/30 05:42:59;;;;;;;8.95;6.35;;;;;;;1.23;73.41;98335.56;5033434;28;20037;-64
2023/11/30 05:45:27;;;;;;;12.65;6.82;;;;;;;1.23;73.67;98322.41;5033524;28;20527;-63
2023/11/30 05:47:53;;;;;;;11.05;6.10;;;;;;;1.34;73.13;98326.09;5033846;28;20033;-62
2023/11/30 05:50:19;;;;;;;12.48;6.80;;;;;;;1.21;74.27;98324.28;5033306;28;20510;-63
2023/11/30 05:52:45;;;;;;;15.75;7.57;;;;;;;1.04;73.52;98287.66;5033330;28;20029;-63
2023/11/30 05:55:11;;;;;;;16.63;8.10;;;;;;;1.29;73.70;98326.41;5032796;28;20087;-64
2023/11/30 05:57:38;;;;;;;14.48;7.22;;;;;;;1.17;73.73;98309.59;5039090;28;20029;-64
2023/11/30 06:00:04;;;;;;;14.70;7.63;;;;;;;1.35;73.71;98327.78;5052546;28;20025;-63
2023/11/30 06:02:32;;;;;;;11.50;7.18;;;;;;;1.36;74.53;98334.75;5044872;28;20379;-62
2023/11/30 06:04:58;;;;;;;12.48;7.35;;;;;;;1.47;73.50;98339.31;5047537;28;20033;-62
2023/11/30 06:07:23;;;;;;;12.77;6.78;;;;;;;1.56;73.63;98326.34;5052383;28;20097;-61
2023/11/30 06:09:50;;;;;;;16.50;8.27;;;;;;;1.45;73.49;98322.75;5052756;28;20037;-60
2023/11/30 06:12:16;;;;;;;12.43;7.57;;;;;;;1.40;73.48;98325.69;5053070;28;20467;-62
2023/11/30 06:14:43;;;;;;;19.65;8.98;;;;;;;1.41;74.05;98336.13;5052527;28;20083;-59
2023/11/30 06:17:08;;;;;;;12.55;8.38;;;;;;;1.43;74.36;98344.78;5042638;28;20115;-62
2023/11/30 06:19:34;;;;;;;20.33;9.02;;;;;;;1.42;74.40;98350.16;5032422;28;20091;-56
2023/11/30 06:22:00;;;;;;;14.18;8.30;;;;;;;1.35;73.66;98289.09;5033440;28;20363;-57
2023/11/30 06:24:26;;;;;;;11.43;7.88;;;;;;;1.62;73.41;98335.63;5032738;28;20048;-57
2023/11/30 06:26:53;;;;;;;10.60;8.00;;;;;;;1.52;73.80;98343.34;5032964;28;20041;-57
2023/11/30 06:29:19;;;;;;;14.15;8.60;;;;;;;1.31;74.30;98308.69;5033574;28;20034;-54
2023/11/30 06:31:45;;;;;;;11.88;8.25;;;;;;;1.60;73.44;98340.19;5032109;28;20044;-58
2023/11/30 06:34:10;;;;;;;12.82;7.47;;;;;;;1.64;73.08;98354.84;5033030;28;20029;-57
2023/11/30 06:36:36;;;;;;;15.52;8.77;;;;;;;1.69;73.15;98342.19;5035551;28;20462;-54
2023/11/30 06:39:03;;;;;;;14.18;8.65;;;;;;;1.63;73.33;98347.88;5052825;28;20047;-57
2023/11/30 06:41:29;;;;;;;14.65;8.88;;;;;;;1.68;73.61;98347.56;5052602;28;20029;-58
2023/11/30 06:43:54;;;;;;;15.60;9.32;;;;;;;1.78;72.77;98340.72;5052386;28;20047;-61
2023/11/30 06:46:23;;;;;;;12.93;8.90;;;;;;;1.79;73.41;98354.75;5041219;28;20041;-61
2023/11/30 06:48:52;;;;;;;15.02;9.43;;;;;;;1.82;73.27;98365.94;5034149;28;20180;-61
2023/11/30 06:51:18;;;;;;;15.52;9.23;;;;;;;1.87;72.39;98355.09;5032073;28;20037;-60
2023/11/30 06:53:44;;;;;;;19.83;10.45;;;;;;;1.77;72.75;98359.28;5032355;28;20352;-63
2023/11/30 06:56:11;;;;;;;19.48;10.18;;;;;;;1.69;72.72;98344.81;5032411;28;20048;-60
2023/11/30 06:58:36;;;;;;;20.20;11.07;;;;;;;1.80;73.01;98370.47;5033788;28;20069;-60
2023/11/30 07:01:09;;;;;;;19.02;10.95;;;;;;;1.82;72.55;98371.22;5031609;28;20115;-61
2023/11/30 07:03:35;;;;;;;17.40;10.70;;;;;;;1.82;73.03;98363.31;5032332;28;20088;-61
2023/11/30 07:06:01;;;;;;;18.33;10.55;;;;;;;1.88;72.56;98353.28;5032554;28;20064;-61
2023/11/30 07:08:26;;;;;;;19.67;11.82;;;;;;;1.90;72.59;98380.41;5032514;28;20460;-60
2023/11/30 07:10:52;;;;;;;19.08;11.02;;;;;;;1.93;72.83;98359.06;5032492;28;20420;-61
2023/11/30 07:13:18;;;;;;;19.95;11.02;;;;;;;2.05;71.66;98368.81;5032189;28;20403;-60
2023/11/30 07:15:43;;;;;;;21.33;12.30;;;;;;;1.89;71.98;98357.59;5045623;28;20136;-61
2023/11/30 07:18:11;;;;;;;17.48;10.98;;;;;;;1.94;71.82;98366.06;5052862;28;20025;-61
2023/11/30 07:20:37;;;;;;;21.30;11.80;;;;;;;1.92;72.09;98389.06;5056334;28;20033;-61
2023/11/30 07:23:04;;;;;;;21.88;12.30;;;;;;;1.93;71.65;98380.19;5053427;28;20052;-59
2023/11/30 07:25:30;;;;;;;20.58;12.05;;;;;;;1.93;71.85;98377.53;5035975;28;20033;-62
2023/11/30 07:27:57;;;;;;;19.55;11.43;;;;;;;2.01;71.54;98368.16;5035962;28;20049;-62
2023/11/30 07:30:23;;;;;;;18.35;9.82;;;;;;;2.13;70.81;98400.78;5049093;28;20037;-63
2023/11/30 07:32:48;;;;;;;18.35;10.95;;;;;;;2.07;70.73;98385.38;5056280;28;20029;-62
2023/11/30 07:35:14;;;;;;;17.90;11.15;;;;;;;1.96;71.21;98370.28;5056341;28;20025;-59
2023/11/30 07:37:42;;;;;;;15.43;10.05;;;;;;;1.94;71.06;98377.47;5048683;28;20407;-62
2023/11/30 07:40:08;;;;;;;18.15;10.23;;;;;;;1.96;69.75;98367.63;5036165;28;20033;-60
2023/11/30 07:42:34;;;;;;;16.02;9.73;;;;;;;1.98;70.24;98383.38;5044065;28;20522;-61
2023/11/30 07:45:02;;;;;;;15.98;9.25;;;;;;;2.00;70.69;98386.75;5047087;28;20040;-59
2023/11/30 07:47:32;;;;;;;15.27;10.30;;;;;;;1.99;70.50;98395.63;5048573;28;20042;-62
2023/11/30 07:49:57;;;;;;;19.23;11.20;;;;;;;1.97;70.42;98392.25;5055540;28;20391;-63
2023/11/30 07:52:23;;;;;;;19.77;11.07;;;;;;;1.92;70.51;98397.84;5055819;28;20033;-63
2023/11/30 07:54:48;;;;;;;21.85;12.20;;;;;;;1.84;70.51;98411.53;5055102;28;20037;-60
2023/11/30 07:57:16;;;;;;;13.43;9.50;;;;;;;1.84;70.28;98400.16;5054707;28;20037;-61
2023/11/30 07:59:41;;;;;;;20.27;12.57;;;;;;;1.67;70.82;98410.03;5046748;28;20033;-61
2023/11/30 08:02:08;;;;;;;16.33;8.90;;;;;;;1.64;70.66;98404.97;5037188;28;20120;-61
2023/11/30 08:04:36;;;;;;;14.45;8.95;;;;;;;1.65;70.84;98416.34;5055499;28;20083;-61
2023/11/30 08:07:01;;;;;;;13.60;8.23;;;;;;;1.62;70.39;98420.06;5050737;28;20033;-61
2023/11/30 08:09:27;;;;;;;20.42;12.35;;;;;;;1.56;70.69;98404.63;5048948;28;20039;-60
2023/11/30 08:11:52;;;;;;;15.40;10.05;;;;;;;1.63;69.80;98418.25;5054706;28;20043;-60
2023/11/30 08:14:19;;;;;;;19.30;11.18;;;;;;;1.64;69.81;98423.44;5050387;28;20025;-62
2023/11/30 08:16:45;;;;;;;16.65;11.30;;;;;;;1.61;69.77;98418.38;5050563;28;20411;-61
2023/11/30 08:19:10;;;;;;;15.05;10.43;;;;;;;1.63;69.88;98415.63;5049297;28;20021;-63
2023/11/30 08:21:40;;;;;;;10.70;7.80;;;;;;;1.74;68.70;98417.53;5039968;28;20087;-62
2023/11/30 08:24:08;;;;;;;14.57;8.10;;;;;;;1.67;68.74;98420.59;5038289;28;20361;-61
2023/11/30 08:26:34;;;;;;;15.55;9.35;;;;;;;1.57;68.83;98423.00;5037447;28;20061;-61
2023/11/30 08:29:00;;;;;;;13.20;9.15;;;;;;;1.34;68.76;98384.09;5052944;28;20125;-63
2023/11/30 08:31:26;;;;;;;14.05;9.57;;;;;;;1.61;68.57;98443.91;5055019;28;20111;-62
2023/11/30 08:33:52;;;;;;;13.38;8.77;;;;;;;1.58;67.76;98424.69;5054133;28;20044;-60
2023/11/30 08:36:17;;;;;;;10.38;7.72;;;;;;;1.57;66.56;98416.91;5050967;28;20036;-62
2023/11/30 08:38:44;;;;;;;14.05;8.52;;;;;;;1.55;67.26;98424.03;5054739;28;20037;-62
2023/11/30 08:41:10;;;;;;;12.50;8.77;;;;;;;1.34;66.87;98398.16;5052739;28;20029;-63
2023/11/30 08:43:35;;;;;;;14.68;8.30;;;;;;;1.47;66.58;98423.69;5052918;28;20094;-62
2023/11/30 08:46:01;;;;;;;13.50;8.50;;;;;;;1.47;66.95;98418.44;5054954;28;20078;-63
2023/11/30 08:48:27;;;;;;;13.45;9.25;;;;;;;1.42;66.37;98424.00;5054546;28;20028;-62
2023/11/30 08:50:53;;;;;;;16.10;9.73;;;;;;;1.40;66.64;98417.97;5054371;28;20439;-61
2023/11/30 08:53:20;;;;;;;15.40;9.57;;;;;;;1.42;65.69;98435.41;5054459;28;20044;-61
2023/11/30 08:55:45;;;;;;;15.90;9.00;;;;;;;1.34;65.93;98432.44;5053271;28;20052;-60
2023/11/30 08:58:12;;;;;;;15.15;9.52;;;;;;;1.35;65.15;98428.00;5049089;28;20029;-64
2023/11/30 09:00:39;;;;;;;14.77;8.82;;;;;;;1.34;65.21;98437.72;5053796;28;20463;-63
2023/11/30 09:03:06;;;;;;;18.42;9.18;;;;;;;1.29;65.46;98427.44;5054183;28;20039;-64
2023/11/30 09:05:31;;;;;;;14.70;8.65;;;;;;;1.42;65.05;98442.47;5049215;28;20044;-61
2023/11/30 09:07:57;;;;;;;12.50;9.13;;;;;;;1.11;65.17;98394.38;5048266;28;20863;-62
2023/11/30 09:10:23;;;;;;;13.57;9.00;;;;;;;1.35;65.17;98418.31;5051810;28;20079;-57
2023/11/30 09:12:48;;;;;;;13.85;9.10;;;;;;;1.41;64.95;98423.16;5037186;28;20037;-62
2023/11/30 09:15:14;;;;;;;14.90;9.20;;;;;;;1.47;64.23;98421.94;5035587;28;20459;-61
2023/11/30 09:17:40;;;;;;;13.77;9.38;;;;;;;1.23;64.29;98384.81;5038675;28;20057;-59
2023/11/30 09:20:08;;;;;;;13.00;9.45;;;;;;;1.53;64.24;98425.94;5047938;28;20363;-62
2023/11/30 09:22:37;;;;;;;15.07;9.13;;;;;;;1.57;64.26;98430.09;5047215;28;20068;-61
2023/11/30 09:25:03;;;;;;;16.38;9.10;;;;;;;1.60;64.27;98429.03;5032289;28;20116;-61
2023/11/30 09:27:32;;;;;;;17.23;9.95;;;;;;;1.63;63.91;98427.03;5036772;28;20041;-62
2023/11/30 09:30:01;;;;;;;16.35;9.55;;;;;;;1.61;63.90;98417.50;5037836;28;20094;-60
2023/11/30 09:32:27;;;;;;;13.75;9.70;;;;;;;1.60;64.00;98423.75;5032903;28;20029;-60
2023/11/30 09:34:53;;;;;;;14.40;9.75;;;;;;;1.60;64.43;98431.66;5045516;28;20030;-62
2023/11/30 09:37:19;;;;;;;18.10;10.18;;;;;;;1.54;64.71;98433.75;5040978;28;20111;-59
2023/11/30 09:39:46;;;;;;;16.98;10.05;;;;;;;1.58;65.57;98434.41;5038324;28;20186;-64
2023/11/30 09:42:16;;;;;;;18.38;10.38;;;;;;;1.56;65.34;98437.13;5042086;28;20036;-60
2023/11/30 09:44:44;;;;;;;17.27;9.93;;;;;;;1.57;65.34;98432.72;5052799;28;20120;-60
2023/11/30 09:47:10;;;;;;;17.63;10.00;;;;;;;1.59;64.97;98444.00;5052587;28;20044;-61
2023/11/30 09:49:39;;;;;;;16.17;9.20;;;;;;;1.60;65.44;98447.47;5051826;28;20033;-62
2023/11/30 09:52:06;;;;;;;16.95;10.27;;;;;;;1.50;65.79;98445.47;5047797;28;20431;-62
2023/11/30 09:54:32;;;;;;;18.67;10.70;;;;;;;1.52;66.14;98450.63;5040789;28;20098;-62
2023/11/30 09:56:57;;;;;;;17.92;11.05;;;;;;;1.49;65.75;98446.41;5048931;28;20091;-63
2023/11/30 09:59:26;;;;;;;14.40;7.85;;;;;;;1.40;65.38;98441.72;5049743;28;20032;-61
2023/11/30 10:01:55;;;;;;;10.05;6.78;;;;;;;1.30;65.02;98457.28;5051259;28;20407;-62
2023/11/30 10:04:23;;;;;;;9.00;5.38;;;;;;;1.11;64.46;98442.66;5051778;28;20036;-62
2023/11/30 10:06:54;;;;;;;9.45;5.60;;;;;;;1.03;64.62;98458.09;5046397;28;20749;-58
2023/11/30 10:09:20;;;;;;;9.15;5.43;;;;;;;0.95;64.42;98457.75;5052276;28;20102;-63
2023/11/30 10:11:45;;;;;;;8.30;5.30;;;;;;;0.88;64.71;98453.81;5050229;28;20028;-56
2023/11/30 10:14:11;;;;;;;9.65;5.57;;;;;;;0.85;64.96;98460.13;5044870;28;20422;-57
2023/11/30 10:16:36;;;;;;;7.68;5.32;;;;;;;0.85;64.88;98462.75;5047540;28;20065;-57
2023/11/30 10:19:06;;;;;;;8.95;5.50;;;;;;;0.87;64.70;98466.13;5051992;28;20091;-60
2023/11/30 10:21:32;;;;;;;11.13;6.38;;;;;;;0.94;64.82;98462.16;5052166;28;20064;-60
2023/11/30 10:23:57;;;;;;;12.65;6.97;;;;;;;0.97;64.29;98472.53;5035683;28;20071;-61
2023/11/30 10:26:25;;;;;;;8.43;5.40;;;;;;;1.03;63.99;98473.09;5044217;28;21457;-62
2023/11/30 10:28:55;;;;;;;10.93;6.03;;;;;;;1.09;63.34;98489.38;5038596;28;20064;-61
2023/11/30 10:31:24;;;;;;;7.22;5.10;;;;;;;1.00;62.51;98488.16;5032197;28;20083;-62
2023/11/30 10:33:55;;;;;;;6.18;4.40;;;;;;;1.01;61.95;98473.19;5046159;28;20079;-61
2023/11/30 10:36:26;;;;;;;6.70;4.88;;;;;;;1.04;61.10;98480.06;5040546;28;20029;-61
2023/11/30 10:39:11;;;;;;;8.15;4.80;;;;;;;1.03;60.70;98481.84;5046345;28;20029;-59
2023/11/30 10:41:48;;;;;;;7.07;4.55;;;;;;;1.00;60.05;98496.06;5048092;28;20030;-62
2023/11/30 10:44:26;;;;;;;5.05;3.70;;;;;;;0.82;59.75;98457.69;5048135;28;20166;-61
2023/11/30 10:46:58;;;;;;;5.63;3.63;;;;;;;1.05;59.29;98489.66;5044244;28;20029;-61
2023/11/30 10:49:25;;;;;;;5.80;3.88;;;;;;;0.97;59.44;98496.25;5041680;28;20103;-59
2023/11/30 10:51:54;;;;;;;6.60;3.85;;;;;;;0.97;59.01;98487.50;5046755;28;20800;-62
2023/11/30 10:54:39;;;;;;;6.05;3.80;;;;;;;1.00;58.91;98503.97;5051511;28;20043;-60
2023/11/30 10:57:06;;;;;;;5.82;4.25;;;;;;;0.91;59.06;98495.78;5044180;28;20531;-63
2023/11/30 10:59:33;;;;;;;5.47;4.22;;;;;;;0.90;58.93;98497.56;5044925;28;20117;-64
2023/11/30 11:01:59;;;;;;;5.68;4.15;;;;;;;0.89;58.22;98505.59;5051234;28;20032;-62
2023/11/30 11:04:28;;;;;;;6.05;3.30;;;;;;;0.73;58.41;98489.88;5051640;28;20179;-61
2023/11/30 11:07:08;;;;;;;5.40;3.60;;;;;;;0.65;58.33;98485.91;5045006;28;20037;-60
2023/11/30 11:09:41;;;;;;;5.80;3.92;;;;;;;0.68;58.97;98493.63;5043840;28;20033;-58
2023/11/30 11:12:24;;;;;;;5.50;3.50;;;;;;;0.66;59.36;98494.69;5033217;28;20336;-59
2023/11/30 11:15:04;;;;;;;4.55;3.50;;;;;;;0.54;58.83;98499.75;5048173;28;20037;-60
2023/11/30 11:17:30;;;;;;;6.70;4.13;;;;;;;0.50;59.18;98505.31;5046571;28;20060;-58
2023/11/30 11:19:59;;;;;;;5.75;3.45;;;;;;;0.52;59.06;98509.53;5051404;28;20416;-61
2023/11/30 11:22:26;;;;;;;6.10;3.53;;;;;;;0.48;59.03;98515.06;5039457;28;20072;-62
2023/11/30 11:25:01;;;;;;;5.82;3.28;;;;;;;0.40;59.00;98518.16;5031185;28;20037;-63
2023/11/30 11:27:29;;;;;;;5.72;3.35;;;;;;;0.33;57.97;98532.63;5047609;28;20052;-63
2023/11/30 11:30:01;;;;;;;4.93;3.33;;;;;;;0.31;57.94;98540.63;5050913;28;20059;-57
2023/11/30 11:32:31;;;;;;;6.38;3.40;;;;;;;0.25;58.04;98551.53;5051567;28;20099;-59
2023/11/30 11:34:57;;;;;;;3.72;3.10;;;;;;;0.15;58.02;98540.69;5051198;28;20033;-55